Time;durP1;ratioP1;P1;durP2;ratioP2;P2;SDS_P1;SDS_P2;PMS_P1;PMS_P2;Temp;Humidity;BMP_temperature;BMP_pressure;BME280_temperature;BME280_humidity;BME280_pressure;Samples;Min_cycle;Max_cycle;Signal;HPM_P1;HPM_P2
2021/05/20 00:00:09;;;;;;;19.10;15.97;;;11.00;99.90;;;;;;4995557;28;20446;-74
2021/05/20 00:02:38;;;;;;;17.73;15.00;;;11.00;99.90;;;;;;5012970;28;20433;-74
2021/05/20 00:05:06;;;;;;;17.23;14.77;;;10.90;99.90;;;;;;4995927;28;20921;-74
2021/05/20 00:07:35;;;;;;;23.03;14.00;;;10.90;99.90;;;;;;5012930;28;20881;-74
2021/05/20 00:10:05;;;;;;;18.70;16.17;;;10.90;99.90;;;;;;5012997;28;20530;-74
2021/05/20 00:12:31;;;;;;;21.57;15.87;;;10.80;99.90;;;;;;4995714;28;20938;-74
2021/05/20 00:14:57;;;;;;;19.80;14.90;;;10.80;99.90;;;;;;4995554;28;21243;-74
2021/05/20 00:17:23;;;;;;;20.33;15.23;;;10.70;99.90;;;;;;4995544;28;20431;-74
2021/05/20 00:19:50;;;;;;;18.77;15.00;;;10.70;99.90;;;;;;4995372;28;20458;-74
2021/05/20 00:22:20;;;;;;;17.93;15.60;;;10.70;99.90;;;;;;4979549;28;20416;-74
2021/05/20 00:24:46;;;;;;;19.23;15.33;;;10.60;99.90;;;;;;5012057;28;20435;-74
2021/05/20 00:27:12;;;;;;;23.63;15.50;;;10.60;99.90;;;;;;5011572;28;20446;-74
2021/05/20 00:29:40;;;;;;;17.23;15.30;;;10.60;99.90;;;;;;5011610;28;20464;-74
2021/05/20 00:32:06;;;;;;;16.10;13.90;;;10.60;99.90;;;;;;5011787;28;20436;-74
2021/05/20 00:34:37;;;;;;;19.53;15.90;;;10.50;99.90;;;;;;5015961;28;20472;-74
2021/05/20 00:37:06;;;;;;;18.63;15.57;;;10.50;99.90;;;;;;4998553;28;20428;-75
2021/05/20 00:39:32;;;;;;;18.80;14.77;;;10.50;99.90;;;;;;4982141;28;20455;-74
2021/05/20 00:42:08;;;;;;;23.43;16.20;;;10.40;99.90;;;;;;5015618;28;20789;-74
2021/05/20 00:44:48;;;;;;;19.43;16.00;;;10.40;99.90;;;;;;4998161;28;20447;-74
2021/05/20 00:47:18;;;;;;;18.50;15.00;;;10.40;99.90;;;;;;4981689;28;20489;-74
2021/05/20 00:49:47;;;;;;;18.50;15.77;;;10.40;99.90;;;;;;4998465;28;20570;-74
2021/05/20 00:52:13;;;;;;;20.40;17.00;;;10.40;99.90;;;;;;5014587;28;20519;-74
2021/05/20 00:54:40;;;;;;;18.53;15.60;;;10.40;99.90;;;;;;4998219;28;21028;-75
2021/05/20 00:57:09;;;;;;;23.10;16.50;;;10.30;99.90;;;;;;4996940;28;20487;-74
2021/05/20 00:59:36;;;;;;;17.93;15.60;;;10.30;99.90;;;;;;4997558;28;20452;-74
2021/05/20 01:02:02;;;;;;;18.20;15.30;;;10.30;99.90;;;;;;4998244;28;20416;-74
2021/05/20 01:04:28;;;;;;;18.43;16.10;;;10.30;99.90;;;;;;5015309;28;20462;-74
2021/05/20 01:06:54;;;;;;;19.60;16.70;;;10.30;99.90;;;;;;4999917;28;20478;-74
2021/05/20 01:09:22;;;;;;;18.50;15.63;;;10.30;99.90;;;;;;5013150;28;20819;-74
2021/05/20 01:11:50;;;;;;;19.77;15.80;;;10.30;99.90;;;;;;4998150;28;20570;-74
2021/05/20 01:14:16;;;;;;;25.47;18.40;;;10.30;99.90;;;;;;4997598;28;20464;-74
2021/05/20 01:16:46;;;;;;;21.77;17.00;;;10.30;99.90;;;;;;4997579;28;20497;-74
2021/05/20 01:19:13;;;;;;;21.53;16.60;;;10.30;99.90;;;;;;5014945;28;20424;-74
2021/05/20 01:21:40;;;;;;;25.03;18.23;;;10.30;99.90;;;;;;4997403;28;20446;-74
2021/05/20 01:24:07;;;;;;;20.23;16.57;;;10.30;99.90;;;;;;4994103;28;20871;-74
2021/05/20 01:26:38;;;;;;;24.07;19.30;;;10.40;99.90;;;;;;4988949;28;20455;-74
2021/05/20 01:29:07;;;;;;;18.17;16.20;;;10.40;99.90;;;;;;4978134;28;20869;-75
2021/05/20 01:31:39;;;;;;;20.57;17.03;;;10.50;99.90;;;;;;5014675;28;20785;-74
2021/05/20 01:34:06;;;;;;;21.27;16.90;;;10.50;99.90;;;;;;4997684;28;20444;-74
2021/05/20 01:36:35;;;;;;;20.23;16.90;;;10.40;99.90;;;;;;5014561;28;20934;-74
2021/05/20 01:39:03;;;;;;;22.30;17.20;;;10.50;99.90;;;;;;5014472;28;20433;-74
2021/05/20 01:41:29;;;;;;;18.93;16.07;;;10.40;99.90;;;;;;5014573;28;20472;-74
2021/05/20 01:43:55;;;;;;;19.77;15.87;;;10.40;99.90;;;;;;4996559;28;20431;-74
2021/05/20 01:46:24;;;;;;;17.60;15.27;;;10.40;99.90;;;;;;4997465;28;20503;-74
2021/05/20 01:48:55;;;;;;;16.50;14.20;;;10.30;99.90;;;;;;4984399;28;20476;-74
2021/05/20 01:51:23;;;;;;;17.20;15.40;;;10.30;99.90;;;;;;4943585;28;20544;-75
2021/05/20 01:53:53;;;;;;;23.47;17.50;;;10.30;99.90;;;;;;4975651;28;20425;-74
2021/05/20 01:56:24;;;;;;;19.53;16.40;;;10.30;99.90;;;;;;4975304;28;20522;-74
2021/05/20 01:58:51;;;;;;;18.93;15.90;;;10.20;99.90;;;;;;4974521;28;20465;-74
2021/05/20 02:01:19;;;;;;;19.43;15.97;;;10.20;99.90;;;;;;4975489;28;20781;-74
2021/05/20 02:03:46;;;;;;;19.20;16.87;;;10.20;99.90;;;;;;4974014;28;20433;-74
2021/05/20 02:06:15;;;;;;;20.90;17.17;;;10.20;99.90;;;;;;4973809;28;20453;-74
2021/05/20 02:08:41;;;;;;;20.63;17.40;;;10.30;99.90;;;;;;4957993;28;20449;-74
2021/05/20 02:11:08;;;;;;;21.50;18.60;;;10.30;99.90;;;;;;4973851;28;20469;-75
2021/05/20 02:13:34;;;;;;;19.23;16.50;;;10.30;99.90;;;;;;4941255;28;20446;-74
2021/05/20 02:16:01;;;;;;;21.90;17.77;;;10.20;99.90;;;;;;4973084;28;20798;-74
2021/05/20 02:18:28;;;;;;;21.13;17.10;;;10.20;99.90;;;;;;4975441;28;20420;-74
2021/05/20 02:20:56;;;;;;;21.27;16.67;;;10.10;99.90;;;;;;4957880;28;20506;-74
2021/05/20 02:23:22;;;;;;;21.60;18.00;;;10.10;99.90;;;;;;4973956;28;20429;-74
2021/05/20 02:25:48;;;;;;;18.30;15.40;;;10.10;99.90;;;;;;4957196;28;20845;-74
2021/05/20 02:28:14;;;;;;;20.23;17.50;;;10.10;99.90;;;;;;4973599;28;20974;-74
2021/05/20 02:30:43;;;;;;;21.10;16.67;;;10.00;99.90;;;;;;4973788;28;20511;-74
2021/05/20 02:33:10;;;;;;;18.77;16.37;;;9.90;99.90;;;;;;4972854;28;20931;-74
2021/05/20 02:35:36;;;;;;;18.73;16.73;;;9.90;99.90;;;;;;4973576;28;20511;-74
2021/05/20 02:38:04;;;;;;;19.30;15.47;;;9.90;99.90;;;;;;4974798;28;20930;-74
2021/05/20 02:40:30;;;;;;;18.53;16.53;;;9.80;99.90;;;;;;4974331;28;20515;-74
2021/05/20 02:42:59;;;;;;;19.50;17.40;;;9.70;99.90;;;;;;4966721;28;20438;-74
2021/05/20 02:45:26;;;;;;;24.90;15.73;;;9.60;99.90;;;;;;4957611;28;20480;-74
2021/05/20 02:47:53;;;;;;;19.73;16.50;;;9.60;99.90;;;;;;4976771;28;20484;-74
2021/05/20 02:50:21;;;;;;;21.27;16.83;;;9.60;99.90;;;;;;5013504;28;20973;-74
2021/05/20 02:52:47;;;;;;;20.90;17.13;;;9.60;99.90;;;;;;4979751;28;20801;-74
2021/05/20 02:55:15;;;;;;;19.60;16.70;;;9.60;99.90;;;;;;4994343;28;20474;-75
2021/05/20 02:57:45;;;;;;;19.83;16.03;;;9.50;99.90;;;;;;5013404;28;20980;-74
2021/05/20 03:00:12;;;;;;;19.30;15.43;;;9.50;99.90;;;;;;4994694;28;20534;-75
2021/05/20 03:02:43;;;;;;;17.30;14.90;;;9.40;99.90;;;;;;4996224;28;20438;-74
2021/05/20 03:05:09;;;;;;;18.83;14.10;;;9.40;99.90;;;;;;4994930;28;20436;-75
2021/05/20 03:07:38;;;;;;;18.20;15.20;;;9.30;99.90;;;;;;5013067;28;20921;-74
2021/05/20 03:10:06;;;;;;;19.70;15.93;;;9.30;99.90;;;;;;4995625;28;20466;-74
2021/05/20 03:12:32;;;;;;;19.67;17.00;;;9.20;99.90;;;;;;5012540;28;20450;-74
2021/05/20 03:14:58;;;;;;;19.47;15.97;;;9.20;99.90;;;;;;5012627;28;20463;-74
2021/05/20 03:17:28;;;;;;;18.20;15.50;;;9.20;99.90;;;;;;4996082;28;20434;-74
2021/05/20 03:19:56;;;;;;;16.67;14.77;;;9.10;99.90;;;;;;5012805;28;20454;-74
2021/05/20 03:22:22;;;;;;;16.40;14.23;;;9.10;99.90;;;;;;4994698;28;20778;-74
2021/05/20 03:24:51;;;;;;;17.23;14.20;;;9.10;99.90;;;;;;5012873;28;20450;-74
2021/05/20 03:27:18;;;;;;;16.73;14.47;;;9.00;99.90;;;;;;5013023;28;20920;-74
2021/05/20 03:29:44;;;;;;;16.77;13.87;;;9.00;99.90;;;;;;4995126;28;20972;-74
2021/05/20 03:32:13;;;;;;;15.60;12.97;;;9.00;99.90;;;;;;5013153;28;20425;-74
2021/05/20 03:34:44;;;;;;;14.37;12.20;;;9.00;99.90;;;;;;5012222;28;20537;-74
2021/05/20 03:37:10;;;;;;;15.60;12.60;;;8.90;99.90;;;;;;5012558;28;20777;-74
2021/05/20 03:39:36;;;;;;;15.50;13.20;;;8.90;99.90;;;;;;4979227;28;20487;-74
2021/05/20 03:42:03;;;;;;;15.60;12.53;;;8.90;99.90;;;;;;4962967;28;20472;-74
2021/05/20 03:44:30;;;;;;;17.23;13.00;;;8.80;99.90;;;;;;4994849;28;20527;-74
2021/05/20 03:46:59;;;;;;;14.63;12.37;;;8.80;99.90;;;;;;4994999;28;20451;-74
2021/05/20 03:49:25;;;;;;;16.30;13.60;;;8.80;99.90;;;;;;5012106;28;20482;-74
2021/05/20 03:51:51;;;;;;;17.23;13.50;;;8.80;99.90;;;;;;4994883;28;20442;-74
2021/05/20 03:54:17;;;;;;;19.83;14.57;;;8.90;99.90;;;;;;4994856;28;20553;-74
2021/05/20 03:56:43;;;;;;;20.83;14.43;;;8.90;99.90;;;;;;5011170;28;20551;-74
2021/05/20 03:59:09;;;;;;;18.23;15.00;;;8.90;99.90;;;;;;5012449;28;20923;-74
2021/05/20 04:01:39;;;;;;;17.40;14.07;;;8.90;99.90;;;;;;5011560;28;20490;-74
2021/05/20 04:04:05;;;;;;;14.20;12.50;;;9.00;99.90;;;;;;4978400;28;21316;-74
2021/05/20 04:06:31;;;;;;;17.53;13.60;;;9.00;99.90;;;;;;5012483;28;20457;-74
2021/05/20 04:08:57;;;;;;;17.63;13.47;;;9.00;99.90;;;;;;4998390;28;20453;-74
2021/05/20 04:11:26;;;;;;;17.73;14.60;;;9.00;99.90;;;;;;4998735;28;20820;-74
2021/05/20 04:13:54;;;;;;;15.23;13.33;;;9.10;99.90;;;;;;5016519;28;20482;-74
2021/05/20 04:16:24;;;;;;;15.93;13.83;;;9.00;99.90;;;;;;4982271;28;20432;-74
2021/05/20 04:18:50;;;;;;;14.17;12.67;;;9.10;99.90;;;;;;5016231;28;20419;-74
2021/05/20 04:21:16;;;;;;;16.37;13.73;;;9.10;99.90;;;;;;5016297;28;20446;-74
2021/05/20 04:23:43;;;;;;;17.57;15.40;;;9.20;99.90;;;;;;4997900;28;20443;-74
2021/05/20 04:26:10;;;;;;;19.27;15.80;;;9.20;99.90;;;;;;5015720;28;20458;-74
2021/05/20 04:28:36;;;;;;;34.53;23.07;;;9.30;99.90;;;;;;4982205;28;20486;-74
2021/05/20 04:31:02;;;;;;;28.40;22.50;;;9.40;99.90;;;;;;4998959;28;20462;-74
2021/05/20 04:33:28;;;;;;;33.97;24.60;;;9.50;99.90;;;;;;5016965;28;20405;-75
2021/05/20 04:35:54;;;;;;;28.80;22.53;;;9.60;99.90;;;;;;4998814;28;21042;-75
2021/05/20 04:38:23;;;;;;;39.00;26.93;;;9.60;99.90;;;;;;4999151;28;20456;-75
2021/05/20 04:40:49;;;;;;;67.67;29.60;;;9.70;99.90;;;;;;5016398;28;20483;-74
2021/05/20 04:43:15;;;;;;;50.53;31.03;;;9.70;99.90;;;;;;4966783;28;20519;-74
2021/05/20 04:45:44;;;;;;;104.63;38.13;;;9.80;99.90;;;;;;4998814;28;20519;-75
2021/05/20 04:48:10;;;;;;;117.60;34.93;;;9.70;99.90;;;;;;5016279;28;20478;-75
2021/05/20 04:50:40;;;;;;;82.73;36.67;;;9.70;99.90;;;;;;4998578;28;20491;-73
2021/05/20 04:53:07;;;;;;;156.50;41.63;;;9.60;99.90;;;;;;4999178;28;20415;-74
2021/05/20 04:55:33;;;;;;;98.87;40.17;;;9.60;99.90;;;;;;4982476;28;20913;-74
2021/05/20 04:57:59;;;;;;;87.50;39.27;;;9.50;99.90;;;;;;4998970;28;20469;-74
2021/05/20 05:00:25;;;;;;;120.37;39.00;;;9.50;99.90;;;;;;4982807;28;20964;-74
2021/05/20 05:02:54;;;;;;;105.77;38.23;;;9.50;99.90;;;;;;5002178;28;20917;-74
2021/05/20 05:05:20;;;;;;;79.67;37.07;;;9.50;99.90;;;;;;4979162;28;20950;-74
2021/05/20 05:07:46;;;;;;;82.93;36.57;;;9.60;99.90;;;;;;4966922;28;20478;-74
2021/05/20 05:10:12;;;;;;;96.03;37.27;;;9.60;99.90;;;;;;5015922;28;20489;-74
2021/05/20 05:12:39;;;;;;;57.60;37.30;;;9.80;99.90;;;;;;5016309;28;20882;-74
2021/05/20 05:15:06;;;;;;;86.37;38.90;;;9.70;99.90;;;;;;5016079;28;20833;-74
2021/05/20 05:17:33;;;;;;;88.43;37.40;;;9.70;99.90;;;;;;5016111;28;20883;-74
2021/05/20 05:19:59;;;;;;;61.03;35.87;;;9.60;99.90;;;;;;4997395;28;20451;-74
2021/05/20 05:22:25;;;;;;;70.00;36.60;;;9.60;99.90;;;;;;5016148;28;20772;-75
2021/05/20 05:24:51;;;;;;;62.60;35.53;;;9.60;99.90;;;;;;5016057;28;20523;-74
2021/05/20 05:27:17;;;;;;;70.77;35.80;;;9.70;99.90;;;;;;4998290;28;20502;-74
2021/05/20 05:29:44;;;;;;;84.07;37.20;;;9.60;99.90;;;;;;5015373;28;20448;-74
2021/05/20 05:32:10;;;;;;;66.03;36.50;;;9.60;99.90;;;;;;5015623;28;20430;-74
2021/05/20 05:34:37;;;;;;;63.83;37.80;;;9.60;99.90;;;;;;5015574;28;21126;-74
2021/05/20 05:37:03;;;;;;;72.73;36.17;;;9.70;99.90;;;;;;4998586;28;20919;-74
2021/05/20 05:39:34;;;;;;;65.30;37.60;;;9.70;99.90;;;;;;4975313;28;20585;-74
2021/05/20 05:42:00;;;;;;;64.33;37.40;;;9.70;99.90;;;;;;5011149;28;20430;-74
2021/05/20 05:44:26;;;;;;;62.50;35.83;;;9.80;99.90;;;;;;4989269;28;20519;-74
2021/05/20 05:46:52;;;;;;;68.30;38.50;;;9.80;99.90;;;;;;4985541;28;20443;-74
2021/05/20 05:49:23;;;;;;;62.97;37.43;;;9.90;99.90;;;;;;4989139;28;20559;-74
2021/05/20 05:51:53;;;;;;;61.10;37.43;;;10.00;99.90;;;;;;4970928;28;20563;-74
2021/05/20 05:54:20;;;;;;;68.50;38.20;;;9.90;99.90;;;;;;4979762;28;20478;-74
2021/05/20 05:56:49;;;;;;;59.83;38.33;;;9.90;99.90;;;;;;4994308;28;20933;-75
2021/05/20 05:59:15;;;;;;;64.53;38.40;;;10.00;99.90;;;;;;4997060;28;20519;-74
2021/05/20 06:01:42;;;;;;;58.47;36.47;;;10.00;99.90;;;;;;4983815;28;20837;-75
2021/05/20 06:04:09;;;;;;;64.83;38.30;;;10.10;99.90;;;;;;4966582;28;20576;-75
2021/05/20 06:06:36;;;;;;;62.83;37.33;;;10.10;99.90;;;;;;4987752;28;20455;-75
2021/05/20 06:09:08;;;;;;;64.27;38.10;;;10.10;99.90;;;;;;4982440;28;20833;-75
2021/05/20 06:11:34;;;;;;;63.43;37.13;;;10.20;99.90;;;;;;5008681;28;20439;-77
2021/05/20 06:14:05;;;;;;;56.20;37.27;;;10.20;99.90;;;;;;5009766;28;20556;-75
2021/05/20 06:16:35;;;;;;;58.93;36.33;;;10.30;99.90;;;;;;4993519;28;20440;-79
2021/05/20 06:19:05;;;;;;;56.47;35.47;;;10.20;99.90;;;;;;4996872;28;20904;-75
2021/05/20 06:21:33;;;;;;;58.10;35.00;;;10.30;99.90;;;;;;4977961;28;20437;-74
2021/05/20 06:24:00;;;;;;;53.03;32.90;;;10.30;99.90;;;;;;4999732;28;21004;-74
2021/05/20 06:26:28;;;;;;;51.00;34.50;;;10.30;99.90;;;;;;4979076;28;20523;-74
2021/05/20 06:28:57;;;;;;;53.40;34.27;;;10.40;99.90;;;;;;4979882;28;20436;-75
2021/05/20 06:31:28;;;;;;;52.47;35.50;;;10.40;99.90;;;;;;4986519;28;20523;-75
2021/05/20 06:33:54;;;;;;;54.80;33.70;;;10.40;99.90;;;;;;4987801;28;20796;-74
2021/05/20 06:36:24;;;;;;;61.87;37.73;;;10.40;99.90;;;;;;4996005;28;20937;-74
2021/05/20 06:38:52;;;;;;;51.60;33.93;;;10.40;99.90;;;;;;5004948;28;20918;-74
2021/05/20 06:41:18;;;;;;;63.33;37.50;;;10.40;99.90;;;;;;5014344;28;20448;-75
2021/05/20 06:43:45;;;;;;;61.47;36.77;;;10.30;99.90;;;;;;4996586;28;20825;-74
2021/05/20 06:46:11;;;;;;;67.70;37.33;;;10.30;99.90;;;;;;4995592;28;20516;-75
2021/05/20 06:48:37;;;;;;;61.80;36.60;;;10.50;99.90;;;;;;4995211;28;20814;-74
2021/05/20 06:51:08;;;;;;;58.60;37.07;;;10.50;99.90;;;;;;4982714;28;20448;-75
2021/05/20 06:53:36;;;;;;;61.27;36.57;;;10.60;99.90;;;;;;5012896;28;20428;-75
2021/05/20 06:56:06;;;;;;;55.23;32.20;;;10.50;99.90;;;;;;4995604;28;20503;-74
2021/05/20 07:01:17;;;;;;;59.77;35.33;;;10.50;99.90;;;;;;5013033;28;20451;-75
2021/05/20 07:03:44;;;;;;;63.43;36.40;;;10.50;99.90;;;;;;4995505;28;20487;-75
2021/05/20 07:06:11;;;;;;;70.30;38.10;;;10.50;99.90;;;;;;5004637;28;21020;-75
2021/05/20 07:08:40;;;;;;;69.77;36.03;;;10.40;99.90;;;;;;4995782;28;20907;-75
2021/05/20 07:11:09;;;;;;;73.07;38.77;;;10.50;99.90;;;;;;5000958;28;20815;-75
2021/05/20 07:13:35;;;;;;;70.00;38.30;;;10.40;99.90;;;;;;5013109;28;20424;-74
2021/05/20 07:16:02;;;;;;;84.80;41.53;;;10.30;99.90;;;;;;5009604;28;20464;-75
2021/05/20 07:18:28;;;;;;;82.60;41.23;;;10.40;99.90;;;;;;4991112;28;20505;-75
2021/05/20 07:20:54;;;;;;;92.60;44.83;;;10.30;99.90;;;;;;4982682;28;20854;-75
2021/05/20 07:23:20;;;;;;;84.17;43.57;;;10.30;99.90;;;;;;5012791;28;20424;-75
2021/05/20 07:25:55;;;;;;;91.83;47.60;;;10.30;99.90;;;;;;5013408;28;20791;-75
2021/05/20 07:28:22;;;;;;;95.80;45.70;;;10.30;99.90;;;;;;5012937;28;20435;-75
2021/05/20 07:30:51;;;;;;;89.27;44.43;;;10.40;99.90;;;;;;4979509;28;20447;-75
2021/05/20 07:33:18;;;;;;;86.37;43.27;;;10.50;99.90;;;;;;4995447;28;20432;-75
2021/05/20 07:35:46;;;;;;;74.00;40.20;;;10.50;99.90;;;;;;4995286;28;20464;-75
2021/05/20 07:38:12;;;;;;;70.57;39.00;;;10.60;99.90;;;;;;5004336;28;20435;-75
2021/05/20 07:40:38;;;;;;;65.87;35.97;;;10.60;99.90;;;;;;4986507;28;20460;-75
2021/05/20 07:43:04;;;;;;;63.97;37.23;;;10.50;99.90;;;;;;4979005;28;20929;-75
2021/05/20 07:45:30;;;;;;;73.23;36.20;;;10.70;99.90;;;;;;4978505;28;20461;-75
2021/05/20 07:47:56;;;;;;;74.37;36.57;;;10.70;99.90;;;;;;4994440;28;20436;-75
2021/05/20 07:50:25;;;;;;;71.77;36.30;;;10.80;99.90;;;;;;4968336;28;20460;-75
2021/05/20 07:52:51;;;;;;;68.43;33.67;;;10.80;99.90;;;;;;5004400;28;20456;-75
2021/05/20 07:55:17;;;;;;;73.83;35.73;;;10.80;99.90;;;;;;4983725;28;20472;-78
2021/05/20 07:57:43;;;;;;;73.60;34.57;;;10.80;99.90;;;;;;4978416;28;20788;-75
2021/05/20 08:00:12;;;;;;;70.90;34.27;;;10.80;99.90;;;;;;5003583;28;20484;-75
2021/05/20 08:05:09;;;;;;;61.60;31.67;;;11.00;99.90;;;;;;5010754;28;20941;-75
2021/05/20 08:07:47;;;;;;;68.87;34.10;;;10.90;99.90;;;;;;4983033;28;20433;-75
2021/05/20 08:10:29;;;;;;;67.93;31.27;;;10.90;99.90;;;;;;4994688;28;20455;-75
2021/05/20 08:12:55;;;;;;;62.13;31.77;;;11.00;99.90;;;;;;5011326;28;20440;-75
2021/05/20 08:15:21;;;;;;;62.23;33.27;;;10.90;99.90;;;;;;4994588;28;20916;-75
2021/05/20 08:17:47;;;;;;;66.77;33.60;;;11.00;99.90;;;;;;5011571;28;20522;-75
2021/05/20 08:20:13;;;;;;;65.97;31.87;;;11.10;99.90;;;;;;5011246;28;20448;-75
2021/05/20 08:22:40;;;;;;;58.80;31.90;;;11.20;99.90;;;;;;4976456;28;20421;-75
2021/05/20 08:25:07;;;;;;;57.30;30.10;;;11.30;99.90;;;;;;4991596;28;20444;-75
2021/05/20 08:27:33;;;;;;;62.37;31.87;;;11.30;99.90;;;;;;4972328;28;20759;-76
2021/05/20 08:30:00;;;;;;;54.87;30.77;;;11.30;99.90;;;;;;5011368;28;20458;-75
2021/05/20 08:32:30;;;;;;;67.53;33.83;;;11.40;99.90;;;;;;4977600;28;20425;-75
2021/05/20 08:34:56;;;;;;;56.20;31.70;;;11.50;99.90;;;;;;5011082;28;20515;-75
2021/05/20 08:37:22;;;;;;;56.77;31.13;;;11.60;99.90;;;;;;4993999;28;20771;-75
2021/05/20 08:39:51;;;;;;;54.03;32.87;;;11.70;99.90;;;;;;5010686;28;20440;-76
2021/05/20 08:42:20;;;;;;;49.17;28.10;;;12.00;99.90;;;;;;5011544;28;20931;-76
2021/05/20 08:44:46;;;;;;;49.80;31.90;;;12.20;99.90;;;;;;5011204;28;20467;-76
2021/05/20 08:47:12;;;;;;;49.20;30.87;;;12.30;99.90;;;;;;4978226;28;20433;-76
2021/05/20 08:49:39;;;;;;;42.13;27.67;;;12.50;99.90;;;;;;4971267;28;20483;-76
2021/05/20 08:52:09;;;;;;;47.67;30.43;;;12.60;99.90;;;;;;4966595;28;21078;-76
2021/05/20 08:54:35;;;;;;;43.97;27.87;;;12.70;99.90;;;;;;4969754;28;20474;-76
2021/05/20 08:57:04;;;;;;;50.67;31.07;;;12.70;99.90;;;;;;4967222;28;20437;-76
2021/05/20 08:59:30;;;;;;;47.87;28.00;;;12.80;99.90;;;;;;4958026;28;20452;-76
2021/05/20 09:01:58;;;;;;;45.93;30.20;;;12.80;99.90;;;;;;4973610;28;20438;-76
2021/05/20 09:04:27;;;;;;;49.93;31.80;;;12.80;99.90;;;;;;4966755;28;20439;-76
2021/05/20 09:07:05;;;;;;;50.17;29.90;;;12.90;99.90;;;;;;4970686;28;20442;-76
2021/05/20 09:09:40;;;;;;;43.00;28.30;;;12.90;99.90;;;;;;4952543;28;20521;-76
2021/05/20 09:12:08;;;;;;;45.07;28.57;;;13.10;99.90;;;;;;4974498;28;20526;-76
2021/05/20 09:14:41;;;;;;;36.10;26.87;;;13.20;99.90;;;;;;4954060;28;20474;-76
2021/05/20 09:17:15;;;;;;;38.37;26.80;;;13.30;99.90;;;;;;4968108;28;20835;-76
2021/05/20 09:19:45;;;;;;;35.80;25.90;;;13.50;99.90;;;;;;4974451;28;20456;-76
2021/05/20 09:22:13;;;;;;;33.17;23.60;;;13.50;99.90;;;;;;4967516;28;20436;-76
2021/05/20 09:24:51;;;;;;;32.27;24.23;;;13.60;99.90;;;;;;4960307;28;20434;-77
2021/05/20 09:27:36;;;;;;;29.03;21.50;;;13.70;99.90;;;;;;4965302;28;20500;-77
2021/05/20 09:30:19;;;;;;;26.13;20.77;;;14.00;99.90;;;;;;4949644;28;20906;-76
2021/05/20 09:32:49;;;;;;;25.87;20.50;;;14.10;99.90;;;;;;4961487;28;20883;-76
2021/05/20 09:35:17;;;;;;;26.30;20.57;;;14.10;99.90;;;;;;4949028;28;21070;-76
2021/05/20 09:37:52;;;;;;;25.63;19.90;;;14.10;99.90;;;;;;4967061;28;20472;-76
2021/05/20 09:40:23;;;;;;;25.10;21.60;;;14.20;99.90;;;;;;4972234;28;21076;-76
2021/05/20 09:42:49;;;;;;;21.73;19.00;;;14.50;99.90;;;;;;4971216;28;20465;-76
2021/05/20 09:45:19;;;;;;;24.33;19.40;;;14.70;99.90;;;;;;4967140;28;20437;-76
2021/05/20 09:47:46;;;;;;;25.77;20.00;;;15.00;99.90;;;;;;4962194;28;20519;-76
2021/05/20 09:50:20;;;;;;;21.37;18.83;;;15.30;99.90;;;;;;5012922;28;20476;-76
2021/05/20 09:52:47;;;;;;;20.27;17.67;;;15.70;99.90;;;;;;4980796;28;20960;-76
2021/05/20 09:55:27;;;;;;;21.00;18.30;;;15.90;99.90;;;;;;4978075;28;20514;-76
2021/05/20 09:57:57;;;;;;;21.77;18.97;;;16.00;99.90;;;;;;4992655;28;20432;-77
2021/05/20 10:00:26;;;;;;;20.53;18.20;;;16.20;99.90;;;;;;4973476;28;20610;-76
2021/05/20 10:03:04;;;;;;;20.07;17.33;;;16.50;99.90;;;;;;5004511;28;20464;-76
2021/05/20 10:05:33;;;;;;;20.67;18.03;;;16.80;99.90;;;;;;5010666;28;21023;-77
2021/05/20 10:08:07;;;;;;;20.57;18.20;;;16.80;99.90;;;;;;4985873;28;20459;-76
2021/05/20 10:10:37;;;;;;;22.60;18.80;;;16.60;99.90;;;;;;4978233;28;20479;-76
2021/05/20 10:13:10;;;;;;;21.17;18.97;;;16.70;99.90;;;;;;4992244;28;20925;-76
2021/05/20 10:15:37;;;;;;;19.67;17.57;;;16.80;99.90;;;;;;4996283;28;20566;-76
2021/05/20 10:18:06;;;;;;;18.20;16.40;;;16.90;99.90;;;;;;4986808;28;20802;-76
2021/05/20 10:20:34;;;;;;;21.80;19.50;;;17.00;99.90;;;;;;5008784;28;20786;-74
2021/05/20 10:23:10;;;;;;;18.67;16.60;;;17.20;99.90;;;;;;4991845;28;20459;-75
2021/05/20 10:25:37;;;;;;;18.07;15.83;;;17.40;99.90;;;;;;4986800;28;20773;-75
2021/05/20 10:28:04;;;;;;;18.40;16.70;;;17.30;99.90;;;;;;4991956;28;20868;-77
2021/05/20 10:30:32;;;;;;;18.13;16.33;;;17.70;99.90;;;;;;4994107;28;20895;-74
2021/05/20 10:32:59;;;;;;;18.57;16.70;;;18.00;99.90;;;;;;5003597;28;20436;-73
2021/05/20 10:35:48;;;;;;;18.03;16.33;;;17.70;99.90;;;;;;5004846;28;21040;-76
2021/05/20 10:38:30;;;;;;;20.03;17.87;;;17.10;99.90;;;;;;4993146;28;20447;-75
2021/05/20 10:41:09;;;;;;;20.53;18.33;;;16.80;99.90;;;;;;5000395;28;20447;-74
2021/05/20 10:43:35;;;;;;;19.27;17.47;;;16.70;99.90;;;;;;4994392;28;20436;-77
2021/05/20 10:46:14;;;;;;;17.10;15.40;;;16.60;99.90;;;;;;4988368;28;20444;-77
2021/05/20 10:48:51;;;;;;;16.93;15.13;;;16.50;99.90;;;;;;4952550;28;21025;-75
2021/05/20 10:51:19;;;;;;;15.37;13.83;;;16.90;99.90;;;;;;4978308;28;20463;-74
2021/05/20 10:54:08;;;;;;;14.00;12.70;;;17.30;99.90;;;;;;5002137;28;20432;-74
2021/05/20 10:56:39;;;;;;;13.27;11.87;;;17.70;99.90;;;;;;4975757;28;20716;-75
2021/05/20 10:59:34;;;;;;;13.43;12.13;;;18.20;99.90;;;;;;5010059;28;20484;-74
2021/05/20 11:02:00;;;;;;;14.37;13.03;;;18.80;94.70;;;;;;4999021;28;20886;-75
2021/05/20 11:04:35;;;;;;;14.00;12.80;;;19.10;98.30;;;;;;4970274;28;20504;-74
2021/05/20 11:07:02;;;;;;;13.80;12.60;;;19.00;94.60;;;;;;4989950;28;20440;-75
2021/05/20 11:09:46;;;;;;;13.73;12.53;;;19.00;94.70;;;;;;4985618;28;20448;-75
2021/05/20 11:12:13;;;;;;;15.53;12.80;;;19.00;94.10;;;;;;4986834;28;20438;-75
2021/05/20 11:14:39;;;;;;;12.67;11.57;;;18.80;90.70;;;;;;5003735;28;20468;-75
2021/05/20 11:17:31;;;;;;;13.57;12.37;;;18.40;91.00;;;;;;4971815;28;20448;-75
2021/05/20 11:20:25;;;;;;;13.13;11.93;;;18.40;93.90;;;;;;4973047;28;20479;-75
2021/05/20 11:23:17;;;;;;;14.00;12.90;;;18.70;91.10;;;;;;4985363;28;20507;-74
2021/05/20 11:25:46;;;;;;;11.93;10.97;;;19.20;90.50;;;;;;4983782;28;20445;-74
2021/05/20 11:28:18;;;;;;;11.50;10.50;;;19.40;89.40;;;;;;5001396;28;20434;-74
2021/05/20 11:30:44;;;;;;;13.00;11.90;;;19.70;92.10;;;;;;5007053;28;20473;-75
2021/05/20 11:33:22;;;;;;;12.63;11.60;;;19.80;84.10;;;;;;4999678;28;20967;-75
2021/05/20 11:38:27;;;;;;;11.90;11.00;;;20.10;90.30;;;;;;5001973;28;20517;-73
2021/05/20 11:40:53;;;;;;;12.07;11.17;;;20.40;85.30;;;;;;4975993;28;20458;-73
2021/05/20 11:43:32;;;;;;;12.87;11.97;;;20.50;79.20;;;;;;4975364;28;20431;-73
2021/05/20 11:45:59;;;;;;;11.57;10.67;;;20.40;74.40;;;;;;4968877;28;20449;-73
2021/05/20 11:48:25;;;;;;;12.17;11.27;;;20.30;75.30;;;;;;5009449;28;20474;-75
2021/05/20 11:50:53;;;;;;;12.13;11.23;;;20.20;75.90;;;;;;5001489;28;20523;-71
2021/05/20 11:53:20;;;;;;;10.13;9.40;;;20.40;76.20;;;;;;4981295;28;20436;-74
2021/05/20 11:55:47;;;;;;;11.33;10.53;;;20.80;76.20;;;;;;4974761;28;20562;-72
2021/05/20 11:58:16;;;;;;;9.90;9.10;;;20.60;75.10;;;;;;4967164;28;20462;-73
2021/05/20 12:00:45;;;;;;;12.43;11.43;;;20.80;75.40;;;;;;4993608;28;20499;-72
2021/05/20 12:03:12;;;;;;;9.90;9.20;;;20.70;71.40;;;;;;4999118;28;20428;-72
2021/05/20 12:05:41;;;;;;;10.20;9.37;;;20.70;75.80;;;;;;5005116;28;20447;-73
2021/05/20 12:08:20;;;;;;;11.07;10.27;;;20.90;76.70;;;;;;4997234;28;20446;-73
2021/05/20 12:10:53;;;;;;;12.23;11.33;;;21.00;75.50;;;;;;4984755;28;20492;-74
2021/05/20 12:13:19;;;;;;;11.03;10.20;;;21.00;73.20;;;;;;5000412;28;20447;-73
2021/05/20 12:15:49;;;;;;;11.13;10.33;;;21.20;76.70;;;;;;4975032;28;20461;-73
2021/05/20 12:18:20;;;;;;;11.77;10.97;;;21.50;79.80;;;;;;4987093;28;20432;-73
2021/05/20 12:20:48;;;;;;;11.70;10.80;;;21.80;74.60;;;;;;4982010;28;20496;-73
2021/05/20 12:23:16;;;;;;;12.60;11.60;;;21.80;71.90;;;;;;4998222;28;20440;-73
2021/05/20 12:25:43;;;;;;;10.30;9.50;;;21.80;71.20;;;;;;5006649;28;20901;-74
2021/05/20 12:28:10;;;;;;;10.10;9.20;;;21.60;66.90;;;;;;4988931;28;21188;-73
2021/05/20 12:30:37;;;;;;;8.60;8.10;;;21.40;68.20;;;;;;5001652;28;20457;-73
2021/05/20 12:33:07;;;;;;;9.77;8.87;;;21.20;70.90;;;;;;4992399;28;20429;-73
2021/05/20 12:35:42;;;;;;;10.40;9.20;;;21.40;76.10;;;;;;4985331;28;20551;-73
2021/05/20 12:38:16;;;;;;;9.17;8.67;;;21.20;74.60;;;;;;4986917;28;20440;-73
2021/05/20 12:40:45;;;;;;;9.67;8.87;;;21.00;68.20;;;;;;4976898;28;20662;-73
2021/05/20 12:43:18;;;;;;;10.00;9.30;;;20.60;68.60;;;;;;5001667;28;20428;-73
2021/05/20 12:45:44;;;;;;;9.97;9.27;;;20.50;68.60;;;;;;5011427;28;20447;-73